sensor_id;sensor_type;location;lat;lon;timestamp;temperature;humidity
45535;DHT22;35892;48.798;9.698;2022-10-31T00:00:43;9.70;99.90
45535;DHT22;35892;48.798;9.698;2022-10-31T00:03:10;9.60;99.90
45535;DHT22;35892;48.798;9.698;2022-10-31T00:05:49;9.50;99.90
45535;DHT22;35892;48.798;9.698;2022-10-31T00:08:19;9.50;99.90
45535;DHT22;35892;48.798;9.698;2022-10-31T00:10:46;9.50;99.90
45535;DHT22;35892;48.798;9.698;2022-10-31T00:13:17;9.60;99.90
45535;DHT22;35892;48.798;9.698;2022-10-31T00:15:44;9.60;99.90
45535;DHT22;35892;48.798;9.698;2022-10-31T00:18:10;9.50;99.90
45535;DHT22;35892;48.798;9.698;2022-10-31T00:20:39;9.50;99.90
45535;DHT22;35892;48.798;9.698;2022-10-31T00:23:06;9.50;99.90
45535;DHT22;35892;48.798;9.698;2022-10-31T00:25:37;9.40;99.90
45535;DHT22;35892;48.798;9.698;2022-10-31T00:28:08;9.40;99.90
45535;DHT22;35892;48.798;9.698;2022-10-31T00:30:39;9.40;99.90
45535;DHT22;35892;48.798;9.698;2022-10-31T00:33:08;9.40;99.90
45535;DHT22;35892;48.798;9.698;2022-10-31T00:35:37;9.40;99.90
45535;DHT22;35892;48.798;9.698;2022-10-31T00:38:08;9.30;99.90
45535;DHT22;35892;48.798;9.698;2022-10-31T00:40:40;9.30;99.90
45535;DHT22;35892;48.798;9.698;2022-10-31T00:43:09;9.30;99.90
45535;DHT22;35892;48.798;9.698;2022-10-31T00:45:42;9.30;99.90
45535;DHT22;35892;48.798;9.698;2022-10-31T00:48:09;9.40;99.90
45535;DHT22;35892;48.798;9.698;2022-10-31T00:50:39;9.40;99.90
45535;DHT22;35892;48.798;9.698;2022-10-31T00:53:08;9.40;99.90
45535;DHT22;35892;48.798;9.698;2022-10-31T00:55:38;9.40;99.90
45535;DHT22;35892;48.798;9.698;2022-10-31T00:58:04;9.40;99.90
45535;DHT22;35892;48.798;9.698;2022-10-31T01:00:31;9.30;99.90
45535;DHT22;35892;48.798;9.698;2022-10-31T01:02:58;9.30;99.90
45535;DHT22;35892;48.798;9.698;2022-10-31T01:05:25;9.30;99.90
45535;DHT22;35892;48.798;9.698;2022-10-31T01:07:54;9.40;99.90
45535;DHT22;35892;48.798;9.698;2022-10-31T01:10:21;9.30;99.90
45535;DHT22;35892;48.798;9.698;2022-10-31T01:12:49;9.30;99.90
45535;DHT22;35892;48.798;9.698;2022-10-31T01:15:22;9.30;99.90
45535;DHT22;35892;48.798;9.698;2022-10-31T01:17:49;9.30;99.90
45535;DHT22;35892;48.798;9.698;2022-10-31T01:20:21;9.30;99.90
45535;DHT22;35892;48.798;9.698;2022-10-31T01:22:48;9.30;99.90
45535;DHT22;35892;48.798;9.698;2022-10-31T01:25:14;9.40;99.90
45535;DHT22;35892;48.798;9.698;2022-10-31T01:27:43;9.40;99.90
45535;DHT22;35892;48.798;9.698;2022-10-31T01:30:12;9.30;99.90
45535;DHT22;35892;48.798;9.698;2022-10-31T01:32:39;9.20;99.90
45535;DHT22;35892;48.798;9.698;2022-10-31T01:35:06;9.20;99.90
45535;DHT22;35892;48.798;9.698;2022-10-31T01:37:33;9.20;99.90
45535;DHT22;35892;48.798;9.698;2022-10-31T01:40:04;9.20;99.90
45535;DHT22;35892;48.798;9.698;2022-10-31T01:42:33;9.20;99.90
45535;DHT22;35892;48.798;9.698;2022-10-31T01:45:01;9.20;99.90
45535;DHT22;35892;48.798;9.698;2022-10-31T01:47:40;9.20;99.90
45535;DHT22;35892;48.798;9.698;2022-10-31T01:50:23;9.30;99.90
45535;DHT22;35892;48.798;9.698;2022-10-31T01:52:55;9.30;99.90
45535;DHT22;35892;48.798;9.698;2022-10-31T01:55:30;9.20;99.90
45535;DHT22;35892;48.798;9.698;2022-10-31T01:58:27;9.20;99.90
45535;DHT22;35892;48.798;9.698;2022-10-31T02:00:57;9.20;99.90
45535;DHT22;35892;48.798;9.698;2022-10-31T02:03:31;9.20;99.90
45535;DHT22;35892;48.798;9.698;2022-10-31T02:05:58;9.20;99.90
45535;DHT22;35892;48.798;9.698;2022-10-31T02:08:30;9.20;99.90
45535;DHT22;35892;48.798;9.698;2022-10-31T02:10:58;9.10;99.90
45535;DHT22;35892;48.798;9.698;2022-10-31T02:13:28;9.10;99.90
45535;DHT22;35892;48.798;9.698;2022-10-31T02:15:57;9.10;99.90
45535;DHT22;35892;48.798;9.698;2022-10-31T02:18:26;9.10;99.90
45535;DHT22;35892;48.798;9.698;2022-10-31T02:21:16;9.10;99.90
45535;DHT22;35892;48.798;9.698;2022-10-31T02:32:27;9.10;99.90
45535;DHT22;35892;48.798;9.698;2022-10-31T02:37:48;9.10;99.90
45535;DHT22;35892;48.798;9.698;2022-10-31T02:40:26;9.10;99.90
45535;DHT22;35892;48.798;9.698;2022-10-31T02:43:06;9.00;99.90
45535;DHT22;35892;48.798;9.698;2022-10-31T02:48:19;9.00;99.90
45535;DHT22;35892;48.798;9.698;2022-10-31T02:51:03;8.90;99.90
45535;DHT22;35892;48.798;9.698;2022-10-31T02:53:36;8.90;99.90
45535;DHT22;35892;48.798;9.698;2022-10-31T02:56:15;8.80;99.90
45535;DHT22;35892;48.798;9.698;2022-10-31T02:58:49;8.80;99.90
45535;DHT22;35892;48.798;9.698;2022-10-31T03:04:42;8.90;99.90
45535;DHT22;35892;48.798;9.698;2022-10-31T03:10:44;8.90;99.90
45535;DHT22;35892;48.798;9.698;2022-10-31T03:15:47;8.80;99.90
45535;DHT22;35892;48.798;9.698;2022-10-31T03:18:30;8.80;99.90
45535;DHT22;35892;48.798;9.698;2022-10-31T03:21:05;8.80;99.90
45535;DHT22;35892;48.798;9.698;2022-10-31T03:23:36;8.80;99.90
45535;DHT22;35892;48.798;9.698;2022-10-31T03:26:10;8.70;99.90
45535;DHT22;35892;48.798;9.698;2022-10-31T03:28:47;8.70;99.90
45535;DHT22;35892;48.798;9.698;2022-10-31T03:31:18;8.70;99.90
45535;DHT22;35892;48.798;9.698;2022-10-31T03:33:46;8.70;99.90
45535;DHT22;35892;48.798;9.698;2022-10-31T03:36:17;8.70;99.90
45535;DHT22;35892;48.798;9.698;2022-10-31T03:38:46;8.70;99.90
45535;DHT22;35892;48.798;9.698;2022-10-31T03:41:19;8.60;99.90
45535;DHT22;35892;48.798;9.698;2022-10-31T03:43:55;8.70;99.90
45535;DHT22;35892;48.798;9.698;2022-10-31T03:46:24;8.70;99.90
45535;DHT22;35892;48.798;9.698;2022-10-31T03:48:51;8.60;99.90
45535;DHT22;35892;48.798;9.698;2022-10-31T03:52:02;8.60;99.90
45535;DHT22;35892;48.798;9.698;2022-10-31T03:57:29;8.60;99.90
45535;DHT22;35892;48.798;9.698;2022-10-31T04:00:08;8.60;99.90
45535;DHT22;35892;48.798;9.698;2022-10-31T04:02:41;8.60;99.90
45535;DHT22;35892;48.798;9.698;2022-10-31T04:05:17;8.60;99.90
45535;DHT22;35892;48.798;9.698;2022-10-31T04:07:47;8.50;99.90
45535;DHT22;35892;48.798;9.698;2022-10-31T04:10:17;8.50;99.90
45535;DHT22;35892;48.798;9.698;2022-10-31T04:12:48;8.50;99.90
45535;DHT22;35892;48.798;9.698;2022-10-31T04:15:19;8.50;99.90
45535;DHT22;35892;48.798;9.698;2022-10-31T04:17:50;8.50;99.90
45535;DHT22;35892;48.798;9.698;2022-10-31T04:20:18;8.50;99.90
45535;DHT22;35892;48.798;9.698;2022-10-31T04:22:55;8.50;99.90
45535;DHT22;35892;48.798;9.698;2022-10-31T04:25:24;8.60;99.90
45535;DHT22;35892;48.798;9.698;2022-10-31T04:27:53;8.50;99.90
45535;DHT22;35892;48.798;9.698;2022-10-31T04:30:22;8.50;99.90
45535;DHT22;35892;48.798;9.698;2022-10-31T04:32:54;8.50;99.90
45535;DHT22;35892;48.798;9.698;2022-10-31T04:35:20;8.40;99.90
45535;DHT22;35892;48.798;9.698;2022-10-31T04:37:49;8.40;99.90
45535;DHT22;35892;48.798;9.698;2022-10-31T04:40:21;8.40;99.90
45535;DHT22;35892;48.798;9.698;2022-10-31T04:42:47;8.30;99.90
45535;DHT22;35892;48.798;9.698;2022-10-31T04:45:14;8.40;99.90
45535;DHT22;35892;48.798;9.698;2022-10-31T04:47:46;8.40;99.90
45535;DHT22;35892;48.798;9.698;2022-10-31T04:50:15;8.40;99.90
45535;DHT22;35892;48.798;9.698;2022-10-31T04:52:45;8.40;99.90
45535;DHT22;35892;48.798;9.698;2022-10-31T04:55:15;8.40;99.90
45535;DHT22;35892;48.798;9.698;2022-10-31T04:57:46;8.40;99.90
45535;DHT22;35892;48.798;9.698;2022-10-31T05:00:17;8.30;99.90
45535;DHT22;35892;48.798;9.698;2022-10-31T05:02:48;8.30;99.90
45535;DHT22;35892;48.798;9.698;2022-10-31T05:05:17;8.30;99.90
45535;DHT22;35892;48.798;9.698;2022-10-31T05:07:48;8.30;99.90
45535;DHT22;35892;48.798;9.698;2022-10-31T05:10:20;8.30;99.90
45535;DHT22;35892;48.798;9.698;2022-10-31T05:12:49;8.30;99.90
45535;DHT22;35892;48.798;9.698;2022-10-31T05:15:18;8.30;99.90
45535;DHT22;35892;48.798;9.698;2022-10-31T05:17:48;8.30;99.90
45535;DHT22;35892;48.798;9.698;2022-10-31T05:20:15;8.30;99.90
45535;DHT22;35892;48.798;9.698;2022-10-31T05:22:49;8.20;99.90
45535;DHT22;35892;48.798;9.698;2022-10-31T05:25:17;8.20;99.90
45535;DHT22;35892;48.798;9.698;2022-10-31T05:27:46;8.20;99.90
45535;DHT22;35892;48.798;9.698;2022-10-31T05:30:17;8.30;99.90
45535;DHT22;35892;48.798;9.698;2022-10-31T05:32:46;8.30;99.90
45535;DHT22;35892;48.798;9.698;2022-10-31T05:35:16;8.20;99.90
45535;DHT22;35892;48.798;9.698;2022-10-31T05:37:48;8.20;99.90
45535;DHT22;35892;48.798;9.698;2022-10-31T05:40:16;8.20;99.90
45535;DHT22;35892;48.798;9.698;2022-10-31T05:42:46;8.10;99.90
45535;DHT22;35892;48.798;9.698;2022-10-31T05:45:16;8.10;99.90
45535;DHT22;35892;48.798;9.698;2022-10-31T05:47:55;8.10;99.90
45535;DHT22;35892;48.798;9.698;2022-10-31T05:50:26;8.10;99.90
45535;DHT22;35892;48.798;9.698;2022-10-31T05:52:57;8.20;99.90
45535;DHT22;35892;48.798;9.698;2022-10-31T05:55:27;8.10;99.90
45535;DHT22;35892;48.798;9.698;2022-10-31T05:57:57;8.10;99.90
45535;DHT22;35892;48.798;9.698;2022-10-31T06:00:30;8.10;99.90
45535;DHT22;35892;48.798;9.698;2022-10-31T06:03:01;8.10;99.90
45535;DHT22;35892;48.798;9.698;2022-10-31T06:05:29;8.10;99.90
45535;DHT22;35892;48.798;9.698;2022-10-31T06:07:56;8.10;99.90
45535;DHT22;35892;48.798;9.698;2022-10-31T06:10:27;8.10;99.90
45535;DHT22;35892;48.798;9.698;2022-10-31T06:12:56;8.10;99.90
45535;DHT22;35892;48.798;9.698;2022-10-31T06:15:28;8.00;99.90
45535;DHT22;35892;48.798;9.698;2022-10-31T06:18:05;8.00;99.90
45535;DHT22;35892;48.798;9.698;2022-10-31T06:20:35;8.00;99.90
45535;DHT22;35892;48.798;9.698;2022-10-31T06:23:04;8.00;99.90
45535;DHT22;35892;48.798;9.698;2022-10-31T06:25:32;8.00;99.90
45535;DHT22;35892;48.798;9.698;2022-10-31T06:27:59;8.10;99.90
45535;DHT22;35892;48.798;9.698;2022-10-31T06:30:29;8.10;99.90
45535;DHT22;35892;48.798;9.698;2022-10-31T06:33:04;8.10;99.90
45535;DHT22;35892;48.798;9.698;2022-10-31T06:35:31;8.10;99.90
45535;DHT22;35892;48.798;9.698;2022-10-31T06:37:58;8.20;99.90
45535;DHT22;35892;48.798;9.698;2022-10-31T06:40:25;8.20;99.90
45535;DHT22;35892;48.798;9.698;2022-10-31T06:42:59;8.20;99.90
45535;DHT22;35892;48.798;9.698;2022-10-31T06:45:28;8.20;99.90
45535;DHT22;35892;48.798;9.698;2022-10-31T06:47:57;8.20;99.90
45535;DHT22;35892;48.798;9.698;2022-10-31T06:50:47;8.20;99.90
45535;DHT22;35892;48.798;9.698;2022-10-31T06:53:16;8.30;99.90
45535;DHT22;35892;48.798;9.698;2022-10-31T06:55:47;8.40;99.90
45535;DHT22;35892;48.798;9.698;2022-10-31T06:58:14;8.40;99.90
45535;DHT22;35892;48.798;9.698;2022-10-31T07:00:41;8.40;99.90
45535;DHT22;35892;48.798;9.698;2022-10-31T07:03:13;8.50;99.90
45535;DHT22;35892;48.798;9.698;2022-10-31T07:05:43;8.50;99.90
45535;DHT22;35892;48.798;9.698;2022-10-31T07:08:15;8.60;99.90
45535;DHT22;35892;48.798;9.698;2022-10-31T07:10:50;8.60;99.90
45535;DHT22;35892;48.798;9.698;2022-10-31T07:13:20;8.70;99.90
45535;DHT22;35892;48.798;9.698;2022-10-31T07:15:58;8.70;99.90
45535;DHT22;35892;48.798;9.698;2022-10-31T07:18:25;8.80;99.90
45535;DHT22;35892;48.798;9.698;2022-10-31T07:20:55;8.80;99.90
45535;DHT22;35892;48.798;9.698;2022-10-31T07:23:22;8.80;99.90
45535;DHT22;35892;48.798;9.698;2022-10-31T07:25:54;8.90;99.90
45535;DHT22;35892;48.798;9.698;2022-10-31T07:28:22;8.90;99.90
45535;DHT22;35892;48.798;9.698;2022-10-31T07:30:51;8.90;99.90
45535;DHT22;35892;48.798;9.698;2022-10-31T07:33:23;9.00;99.90
45535;DHT22;35892;48.798;9.698;2022-10-31T07:35:55;9.00;99.90
45535;DHT22;35892;48.798;9.698;2022-10-31T07:38:22;9.00;99.90
45535;DHT22;35892;48.798;9.698;2022-10-31T07:40:52;9.10;99.90
45535;DHT22;35892;48.798;9.698;2022-10-31T07:43:21;9.10;99.90
45535;DHT22;35892;48.798;9.698;2022-10-31T07:45:54;9.20;99.90
45535;DHT22;35892;48.798;9.698;2022-10-31T07:48:23;9.30;99.90
45535;DHT22;35892;48.798;9.698;2022-10-31T07:50:54;9.50;99.90
45535;DHT22;35892;48.798;9.698;2022-10-31T07:53:21;9.50;99.90
45535;DHT22;35892;48.798;9.698;2022-10-31T07:55:50;9.70;99.90
45535;DHT22;35892;48.798;9.698;2022-10-31T07:58:19;9.70;99.90
45535;DHT22;35892;48.798;9.698;2022-10-31T08:00:46;9.70;99.90
45535;DHT22;35892;48.798;9.698;2022-10-31T08:03:16;9.90;99.90
45535;DHT22;35892;48.798;9.698;2022-10-31T08:05:43;9.90;99.90
45535;DHT22;35892;48.798;9.698;2022-10-31T08:08:14;9.90;99.90
45535;DHT22;35892;48.798;9.698;2022-10-31T08:10:44;10.00;99.90
45535;DHT22;35892;48.798;9.698;2022-10-31T08:13:14;10.10;99.90
45535;DHT22;35892;48.798;9.698;2022-10-31T08:15:41;10.20;99.90
45535;DHT22;35892;48.798;9.698;2022-10-31T08:18:15;10.30;99.90
45535;DHT22;35892;48.798;9.698;2022-10-31T08:20:45;10.40;99.90
45535;DHT22;35892;48.798;9.698;2022-10-31T08:23:12;10.50;99.90
45535;DHT22;35892;48.798;9.698;2022-10-31T08:25:42;10.60;99.90
45535;DHT22;35892;48.798;9.698;2022-10-31T08:28:11;10.70;99.90
45535;DHT22;35892;48.798;9.698;2022-10-31T08:30:41;10.70;99.90
45535;DHT22;35892;48.798;9.698;2022-10-31T08:33:17;10.80;99.90
45535;DHT22;35892;48.798;9.698;2022-10-31T08:35:46;10.90;99.90
45535;DHT22;35892;48.798;9.698;2022-10-31T08:38:16;11.10;99.90
45535;DHT22;35892;48.798;9.698;2022-10-31T08:40:43;11.20;99.90
45535;DHT22;35892;48.798;9.698;2022-10-31T08:43:14;11.30;99.90
45535;DHT22;35892;48.798;9.698;2022-10-31T08:45:41;11.40;99.90
45535;DHT22;35892;48.798;9.698;2022-10-31T08:48:16;11.50;99.90
45535;DHT22;35892;48.798;9.698;2022-10-31T08:50:48;11.50;99.90
45535;DHT22;35892;48.798;9.698;2022-10-31T08:53:18;11.60;99.90
45535;DHT22;35892;48.798;9.698;2022-10-31T08:55:47;11.80;99.90
45535;DHT22;35892;48.798;9.698;2022-10-31T08:58:19;11.90;99.90
45535;DHT22;35892;48.798;9.698;2022-10-31T09:00:49;12.10;99.90
45535;DHT22;35892;48.798;9.698;2022-10-31T09:03:27;12.20;99.90
45535;DHT22;35892;48.798;9.698;2022-10-31T09:05:58;12.30;99.90
45535;DHT22;35892;48.798;9.698;2022-10-31T09:08:26;12.40;99.90
45535;DHT22;35892;48.798;9.698;2022-10-31T09:10:56;12.60;99.90
45535;DHT22;35892;48.798;9.698;2022-10-31T09:13:25;12.70;99.90
45535;DHT22;35892;48.798;9.698;2022-10-31T09:15:55;12.80;99.90
45535;DHT22;35892;48.798;9.698;2022-10-31T09:18:25;12.80;99.90
45535;DHT22;35892;48.798;9.698;2022-10-31T09:20:54;13.00;99.90
45535;DHT22;35892;48.798;9.698;2022-10-31T09:23:24;13.10;99.90
45535;DHT22;35892;48.798;9.698;2022-10-31T09:25:52;13.20;99.90
45535;DHT22;35892;48.798;9.698;2022-10-31T09:28:23;13.30;99.90
45535;DHT22;35892;48.798;9.698;2022-10-31T09:30:55;13.40;99.90
45535;DHT22;35892;48.798;9.698;2022-10-31T09:33:22;13.50;99.90
45535;DHT22;35892;48.798;9.698;2022-10-31T09:35:49;13.60;99.90
45535;DHT22;35892;48.798;9.698;2022-10-31T09:38:18;13.70;99.90
45535;DHT22;35892;48.798;9.698;2022-10-31T09:51:51;14.10;99.90
45535;DHT22;35892;48.798;9.698;2022-10-31T09:54:35;14.30;99.90
45535;DHT22;35892;48.798;9.698;2022-10-31T09:57:12;14.40;99.90
45535;DHT22;35892;48.798;9.698;2022-10-31T09:59:40;14.60;99.90
45535;DHT22;35892;48.798;9.698;2022-10-31T10:02:24;14.80;99.90
45535;DHT22;35892;48.798;9.698;2022-10-31T10:05:04;14.90;99.90
45535;DHT22;35892;48.798;9.698;2022-10-31T10:08:16;15.10;99.90
45535;DHT22;35892;48.798;9.698;2022-10-31T10:18:55;15.50;99.90
45535;DHT22;35892;48.798;9.698;2022-10-31T10:27:30;15.70;99.90
45535;DHT22;35892;48.798;9.698;2022-10-31T10:30:13;15.60;99.90
45535;DHT22;35892;48.798;9.698;2022-10-31T10:32:59;15.70;99.90
45535;DHT22;35892;48.798;9.698;2022-10-31T10:36:00;15.70;99.90
45535;DHT22;35892;48.798;9.698;2022-10-31T10:41:23;15.70;99.90
45535;DHT22;35892;48.798;9.698;2022-10-31T10:43:51;15.70;99.90
45535;DHT22;35892;48.798;9.698;2022-10-31T11:00:23;16.20;99.90
45535;DHT22;35892;48.798;9.698;2022-10-31T11:02:54;16.30;99.90
45535;DHT22;35892;48.798;9.698;2022-10-31T11:08:06;16.50;99.90
45535;DHT22;35892;48.798;9.698;2022-10-31T11:10:35;16.50;99.90
45535;DHT22;35892;48.798;9.698;2022-10-31T11:13:20;16.60;99.90
45535;DHT22;35892;48.798;9.698;2022-10-31T11:18:34;16.70;99.90
45535;DHT22;35892;48.798;9.698;2022-10-31T11:21:04;16.80;99.90
45535;DHT22;35892;48.798;9.698;2022-10-31T11:23:32;16.90;99.90
45535;DHT22;35892;48.798;9.698;2022-10-31T11:26:00;16.90;99.90
45535;DHT22;35892;48.798;9.698;2022-10-31T11:28:31;17.10;99.90
45535;DHT22;35892;48.798;9.698;2022-10-31T11:31:10;17.20;99.90
45535;DHT22;35892;48.798;9.698;2022-10-31T11:33:46;17.40;99.90
45535;DHT22;35892;48.798;9.698;2022-10-31T11:36:29;17.50;99.90
45535;DHT22;35892;48.798;9.698;2022-10-31T11:38:59;17.60;99.90
45535;DHT22;35892;48.798;9.698;2022-10-31T11:41:36;17.70;99.90
45535;DHT22;35892;48.798;9.698;2022-10-31T11:44:17;17.70;99.90
45535;DHT22;35892;48.798;9.698;2022-10-31T11:46:58;17.70;99.90
45535;DHT22;35892;48.798;9.698;2022-10-31T11:49:44;17.80;99.90
45535;DHT22;35892;48.798;9.698;2022-10-31T11:52:25;17.90;99.90
45535;DHT22;35892;48.798;9.698;2022-10-31T11:54:59;17.90;99.90
45535;DHT22;35892;48.798;9.698;2022-10-31T11:57:32;17.90;99.90
45535;DHT22;35892;48.798;9.698;2022-10-31T12:00:02;18.10;99.90
45535;DHT22;35892;48.798;9.698;2022-10-31T12:02:32;18.20;99.90
45535;DHT22;35892;48.798;9.698;2022-10-31T12:05:17;18.30;99.90
45535;DHT22;35892;48.798;9.698;2022-10-31T12:07:47;18.40;99.90
45535;DHT22;35892;48.798;9.698;2022-10-31T12:10:15;18.50;99.90
45535;DHT22;35892;48.798;9.698;2022-10-31T12:15:42;18.70;99.90
45535;DHT22;35892;48.798;9.698;2022-10-31T12:21:11;18.80;99.90
45535;DHT22;35892;48.798;9.698;2022-10-31T12:29:47;19.00;99.90
45535;DHT22;35892;48.798;9.698;2022-10-31T12:32:29;19.10;99.90
45535;DHT22;35892;48.798;9.698;2022-10-31T12:58:38;19.20;99.90
45535;DHT22;35892;48.798;9.698;2022-10-31T13:01:13;19.00;99.90
45535;DHT22;35892;48.798;9.698;2022-10-31T13:06:27;18.70;99.90
45535;DHT22;35892;48.798;9.698;2022-10-31T13:09:03;18.60;99.90
45535;DHT22;35892;48.798;9.698;2022-10-31T13:11:40;18.50;99.90
45535;DHT22;35892;48.798;9.698;2022-10-31T13:14:14;18.50;99.90
45535;DHT22;35892;48.798;9.698;2022-10-31T13:16:46;18.50;99.90
45535;DHT22;35892;48.798;9.698;2022-10-31T13:25:02;18.80;99.90
45535;DHT22;35892;48.798;9.698;2022-10-31T13:30:22;18.80;99.90
45535;DHT22;35892;48.798;9.698;2022-10-31T13:33:14;18.80;99.90
45535;DHT22;35892;48.798;9.698;2022-10-31T13:46:23;18.60;99.90
45535;DHT22;35892;48.798;9.698;2022-10-31T13:48:57;18.50;99.90
45535;DHT22;35892;48.798;9.698;2022-10-31T13:51:30;18.40;99.90
45535;DHT22;35892;48.798;9.698;2022-10-31T13:53:58;18.40;99.90
45535;DHT22;35892;48.798;9.698;2022-10-31T13:56:30;18.40;99.90
45535;DHT22;35892;48.798;9.698;2022-10-31T13:59:23;18.40;99.90
45535;DHT22;35892;48.798;9.698;2022-10-31T14:02:02;18.50;99.90
45535;DHT22;35892;48.798;9.698;2022-10-31T14:04:48;18.50;99.90
45535;DHT22;35892;48.798;9.698;2022-10-31T14:07:18;18.50;99.90
45535;DHT22;35892;48.798;9.698;2022-10-31T14:12:44;18.60;99.90
45535;DHT22;35892;48.798;9.698;2022-10-31T14:15:20;18.70;99.90
45535;DHT22;35892;48.798;9.698;2022-10-31T14:18:07;18.90;99.90
45535;DHT22;35892;48.798;9.698;2022-10-31T14:20:46;19.00;99.90
45535;DHT22;35892;48.798;9.698;2022-10-31T14:26:29;19.40;99.90
45535;DHT22;35892;48.798;9.698;2022-10-31T14:28:58;19.50;99.90
45535;DHT22;35892;48.798;9.698;2022-10-31T14:31:37;19.60;99.90
45535;DHT22;35892;48.798;9.698;2022-10-31T14:39:31;19.20;99.90
45535;DHT22;35892;48.798;9.698;2022-10-31T14:50:48;18.60;99.90
45535;DHT22;35892;48.798;9.698;2022-10-31T14:55:52;18.40;99.90
45535;DHT22;35892;48.798;9.698;2022-10-31T14:58:35;18.30;99.90
45535;DHT22;35892;48.798;9.698;2022-10-31T15:01:04;18.30;99.90
45535;DHT22;35892;48.798;9.698;2022-10-31T15:03:44;18.20;99.90
45535;DHT22;35892;48.798;9.698;2022-10-31T15:06:44;18.10;99.90
45535;DHT22;35892;48.798;9.698;2022-10-31T15:09:22;18.00;99.90
45535;DHT22;35892;48.798;9.698;2022-10-31T15:11:53;17.80;99.90
45535;DHT22;35892;48.798;9.698;2022-10-31T15:14:23;17.60;99.90
45535;DHT22;35892;48.798;9.698;2022-10-31T15:16:51;17.50;99.90
45535;DHT22;35892;48.798;9.698;2022-10-31T15:19:28;17.40;99.90
45535;DHT22;35892;48.798;9.698;2022-10-31T15:21:57;17.30;99.90
45535;DHT22;35892;48.798;9.698;2022-10-31T15:24:30;17.20;99.90
45535;DHT22;35892;48.798;9.698;2022-10-31T15:26:59;17.10;99.90
45535;DHT22;35892;48.798;9.698;2022-10-31T15:29:31;16.90;99.90
45535;DHT22;35892;48.798;9.698;2022-10-31T15:32:23;16.70;99.90
45535;DHT22;35892;48.798;9.698;2022-10-31T15:34:51;16.60;99.90
45535;DHT22;35892;48.798;9.698;2022-10-31T15:37:20;16.40;99.90
45535;DHT22;35892;48.798;9.698;2022-10-31T15:39:48;16.30;99.90
45535;DHT22;35892;48.798;9.698;2022-10-31T15:42:25;16.10;99.90
45535;DHT22;35892;48.798;9.698;2022-10-31T15:45:18;15.90;99.90
45535;DHT22;35892;48.798;9.698;2022-10-31T15:47:59;15.80;99.90
45535;DHT22;35892;48.798;9.698;2022-10-31T15:50:45;15.60;99.90
45535;DHT22;35892;48.798;9.698;2022-10-31T15:53:24;15.50;99.90
45535;DHT22;35892;48.798;9.698;2022-10-31T15:56:02;15.40;99.90
45535;DHT22;35892;48.798;9.698;2022-10-31T15:58:33;15.30;99.90
45535;DHT22;35892;48.798;9.698;2022-10-31T16:01:18;15.20;99.90
45535;DHT22;35892;48.798;9.698;2022-10-31T16:06:37;14.90;99.90
45535;DHT22;35892;48.798;9.698;2022-10-31T16:09:18;14.80;99.90
45535;DHT22;35892;48.798;9.698;2022-10-31T16:11:49;14.70;99.90
45535;DHT22;35892;48.798;9.698;2022-10-31T16:14:22;14.60;99.90
45535;DHT22;35892;48.798;9.698;2022-10-31T16:16:53;14.50;99.90
45535;DHT22;35892;48.798;9.698;2022-10-31T16:19:28;14.40;99.90
45535;DHT22;35892;48.798;9.698;2022-10-31T16:22:09;14.40;99.90
45535;DHT22;35892;48.798;9.698;2022-10-31T16:24:48;14.30;99.90
45535;DHT22;35892;48.798;9.698;2022-10-31T16:27:28;14.20;99.90
45535;DHT22;35892;48.798;9.698;2022-10-31T16:29:56;14.20;99.90
45535;DHT22;35892;48.798;9.698;2022-10-31T16:32:36;14.10;99.90
45535;DHT22;35892;48.798;9.698;2022-10-31T16:37:42;13.90;99.90
45535;DHT22;35892;48.798;9.698;2022-10-31T16:40:13;13.80;99.90
45535;DHT22;35892;48.798;9.698;2022-10-31T16:42:44;13.80;99.90
45535;DHT22;35892;48.798;9.698;2022-10-31T16:45:27;13.70;99.90
45535;DHT22;35892;48.798;9.698;2022-10-31T16:48:03;13.60;99.90
45535;DHT22;35892;48.798;9.698;2022-10-31T16:50:30;13.50;99.90
45535;DHT22;35892;48.798;9.698;2022-10-31T16:52:57;13.40;99.90
45535;DHT22;35892;48.798;9.698;2022-10-31T16:55:54;13.40;99.90
45535;DHT22;35892;48.798;9.698;2022-10-31T16:58:28;13.30;99.90
45535;DHT22;35892;48.798;9.698;2022-10-31T17:00:56;13.30;99.90
45535;DHT22;35892;48.798;9.698;2022-10-31T17:03:24;13.20;99.90
45535;DHT22;35892;48.798;9.698;2022-10-31T17:05:53;13.10;99.90
45535;DHT22;35892;48.798;9.698;2022-10-31T17:08:24;13.10;99.90
45535;DHT22;35892;48.798;9.698;2022-10-31T17:10:54;13.10;99.90
45535;DHT22;35892;48.798;9.698;2022-10-31T17:13:24;13.00;99.90
45535;DHT22;35892;48.798;9.698;2022-10-31T17:15:55;13.00;99.90
45535;DHT22;35892;48.798;9.698;2022-10-31T17:18:24;13.00;99.90
45535;DHT22;35892;48.798;9.698;2022-10-31T17:20:58;12.90;99.90
45535;DHT22;35892;48.798;9.698;2022-10-31T17:23:25;12.90;99.90
45535;DHT22;35892;48.798;9.698;2022-10-31T17:25:55;12.80;99.90
45535;DHT22;35892;48.798;9.698;2022-10-31T17:28:22;12.80;99.90
45535;DHT22;35892;48.798;9.698;2022-10-31T17:30:50;12.80;99.90
45535;DHT22;35892;48.798;9.698;2022-10-31T17:33:17;12.80;99.90
45535;DHT22;35892;48.798;9.698;2022-10-31T17:35:44;12.80;99.90
45535;DHT22;35892;48.798;9.698;2022-10-31T17:38:11;12.70;99.90
45535;DHT22;35892;48.798;9.698;2022-10-31T17:40:39;12.70;99.90
45535;DHT22;35892;48.798;9.698;2022-10-31T17:43:08;12.70;99.90
45535;DHT22;35892;48.798;9.698;2022-10-31T17:45:39;12.60;99.90
45535;DHT22;35892;48.798;9.698;2022-10-31T17:48:11;12.50;99.90
45535;DHT22;35892;48.798;9.698;2022-10-31T17:50:41;12.50;99.90
45535;DHT22;35892;48.798;9.698;2022-10-31T17:53:07;12.40;99.90
45535;DHT22;35892;48.798;9.698;2022-10-31T17:55:34;12.30;99.90
45535;DHT22;35892;48.798;9.698;2022-10-31T17:58:05;12.30;99.90
45535;DHT22;35892;48.798;9.698;2022-10-31T18:00:34;12.30;99.90
45535;DHT22;35892;48.798;9.698;2022-10-31T18:03:04;12.20;99.90
45535;DHT22;35892;48.798;9.698;2022-10-31T18:05:33;12.30;99.90
45535;DHT22;35892;48.798;9.698;2022-10-31T18:08:00;12.20;99.90
45535;DHT22;35892;48.798;9.698;2022-10-31T18:10:30;12.30;99.90
45535;DHT22;35892;48.798;9.698;2022-10-31T18:13:01;12.30;99.90
45535;DHT22;35892;48.798;9.698;2022-10-31T18:15:34;12.30;99.90
45535;DHT22;35892;48.798;9.698;2022-10-31T18:18:06;12.20;99.90
45535;DHT22;35892;48.798;9.698;2022-10-31T18:20:35;12.20;99.90
45535;DHT22;35892;48.798;9.698;2022-10-31T18:23:04;12.30;99.90
45535;DHT22;35892;48.798;9.698;2022-10-31T18:25:33;12.30;99.90
45535;DHT22;35892;48.798;9.698;2022-10-31T18:28:00;12.20;99.90
45535;DHT22;35892;48.798;9.698;2022-10-31T18:30:31;12.10;99.90
45535;DHT22;35892;48.798;9.698;2022-10-31T18:32:58;12.10;99.90
45535;DHT22;35892;48.798;9.698;2022-10-31T18:35:25;12.00;99.90
45535;DHT22;35892;48.798;9.698;2022-10-31T18:37:52;11.90;99.90
45535;DHT22;35892;48.798;9.698;2022-10-31T18:40:21;11.80;99.90
45535;DHT22;35892;48.798;9.698;2022-10-31T18:42:48;11.80;99.90
45535;DHT22;35892;48.798;9.698;2022-10-31T18:45:17;11.60;99.90
45535;DHT22;35892;48.798;9.698;2022-10-31T18:48:04;11.60;99.90